sensor_id;sensor_type;location;lat;lon;timestamp;P1;durP1;ratioP1;P2;durP2;ratioP2
15938;SDS011;8068;51.322;9.450;2023-02-15T00:00:54;32.50;;;18.07;;
15938;SDS011;8068;51.322;9.450;2023-02-15T00:03:25;27.53;;;17.23;;
15938;SDS011;8068;51.322;9.450;2023-02-15T00:05:58;25.63;;;16.10;;
15938;SDS011;8068;51.322;9.450;2023-02-15T00:08:26;33.07;;;16.97;;
15938;SDS011;8068;51.322;9.450;2023-02-15T00:11:07;57.40;;;17.20;;
15938;SDS011;8068;51.322;9.450;2023-02-15T00:13:34;31.50;;;18.23;;
15938;SDS011;8068;51.322;9.450;2023-02-15T00:16:02;33.30;;;17.00;;
15938;SDS011;8068;51.322;9.450;2023-02-15T00:18:32;38.20;;;16.33;;
15938;SDS011;8068;51.322;9.450;2023-02-15T00:21:03;31.77;;;16.30;;
15938;SDS011;8068;51.322;9.450;2023-02-15T00:23:34;25.23;;;16.10;;
15938;SDS011;8068;51.322;9.450;2023-02-15T00:26:10;46.50;;;15.93;;
15938;SDS011;8068;51.322;9.450;2023-02-15T00:28:37;55.00;;;18.97;;
15938;SDS011;8068;51.322;9.450;2023-02-15T00:31:08;45.67;;;16.93;;
15938;SDS011;8068;51.322;9.450;2023-02-15T00:33:38;33.00;;;15.33;;
15938;SDS011;8068;51.322;9.450;2023-02-15T00:36:09;39.97;;;17.20;;
15938;SDS011;8068;51.322;9.450;2023-02-15T00:38:43;40.73;;;17.50;;
15938;SDS011;8068;51.322;9.450;2023-02-15T00:41:14;47.23;;;16.67;;
15938;SDS011;8068;51.322;9.450;2023-02-15T00:43:45;33.00;;;16.87;;
15938;SDS011;8068;51.322;9.450;2023-02-15T00:46:15;41.30;;;15.87;;
15938;SDS011;8068;51.322;9.450;2023-02-15T00:48:46;47.73;;;17.83;;
15938;SDS011;8068;51.322;9.450;2023-02-15T00:51:16;33.93;;;15.90;;
15938;SDS011;8068;51.322;9.450;2023-02-15T00:53:46;28.30;;;15.67;;
15938;SDS011;8068;51.322;9.450;2023-02-15T00:56:21;22.20;;;12.97;;
15938;SDS011;8068;51.322;9.450;2023-02-15T00:58:51;43.93;;;16.70;;
15938;SDS011;8068;51.322;9.450;2023-02-15T01:01:21;32.70;;;15.50;;
15938;SDS011;8068;51.322;9.450;2023-02-15T01:03:52;39.57;;;16.43;;
15938;SDS011;8068;51.322;9.450;2023-02-15T01:06:22;22.37;;;14.40;;
15938;SDS011;8068;51.322;9.450;2023-02-15T01:08:52;44.50;;;15.13;;
15938;SDS011;8068;51.322;9.450;2023-02-15T01:11:22;60.77;;;15.20;;
15938;SDS011;8068;51.322;9.450;2023-02-15T01:13:57;29.10;;;13.83;;
15938;SDS011;8068;51.322;9.450;2023-02-15T01:16:27;45.53;;;14.40;;
15938;SDS011;8068;51.322;9.450;2023-02-15T01:18:57;23.03;;;14.00;;
15938;SDS011;8068;51.322;9.450;2023-02-15T01:21:28;33.27;;;13.40;;
15938;SDS011;8068;51.322;9.450;2023-02-15T01:24:00;27.80;;;14.57;;
15938;SDS011;8068;51.322;9.450;2023-02-15T01:26:29;26.97;;;13.30;;
15938;SDS011;8068;51.322;9.450;2023-02-15T01:29:00;28.93;;;11.90;;
15938;SDS011;8068;51.322;9.450;2023-02-15T01:31:33;22.73;;;15.13;;
15938;SDS011;8068;51.322;9.450;2023-02-15T01:34:03;27.90;;;12.10;;
15938;SDS011;8068;51.322;9.450;2023-02-15T01:36:33;63.67;;;16.50;;
15938;SDS011;8068;51.322;9.450;2023-02-15T01:39:03;46.57;;;14.73;;
15938;SDS011;8068;51.322;9.450;2023-02-15T01:41:34;31.93;;;13.20;;
15938;SDS011;8068;51.322;9.450;2023-02-15T01:44:40;34.63;;;14.20;;
15938;SDS011;8068;51.322;9.450;2023-02-15T01:47:18;53.23;;;16.30;;
15938;SDS011;8068;51.322;9.450;2023-02-15T01:49:51;36.23;;;14.80;;
15938;SDS011;8068;51.322;9.450;2023-02-15T01:52:29;36.33;;;15.53;;
15938;SDS011;8068;51.322;9.450;2023-02-15T01:55:00;22.40;;;14.20;;
15938;SDS011;8068;51.322;9.450;2023-02-15T01:57:33;43.27;;;15.03;;
15938;SDS011;8068;51.322;9.450;2023-02-15T02:00:09;40.57;;;14.10;;
15938;SDS011;8068;51.322;9.450;2023-02-15T02:02:41;58.07;;;15.30;;
15938;SDS011;8068;51.322;9.450;2023-02-15T02:05:12;21.50;;;13.73;;
15938;SDS011;8068;51.322;9.450;2023-02-15T02:07:40;38.47;;;15.30;;
15938;SDS011;8068;51.322;9.450;2023-02-15T02:10:14;36.90;;;13.43;;
15938;SDS011;8068;51.322;9.450;2023-02-15T02:12:52;31.57;;;14.67;;
15938;SDS011;8068;51.322;9.450;2023-02-15T02:15:33;31.57;;;12.80;;
15938;SDS011;8068;51.322;9.450;2023-02-15T02:21:26;25.17;;;13.90;;
15938;SDS011;8068;51.322;9.450;2023-02-15T02:27:12;48.43;;;15.40;;
15938;SDS011;8068;51.322;9.450;2023-02-15T02:33:06;16.10;;;12.57;;
15938;SDS011;8068;51.322;9.450;2023-02-15T02:36:04;33.60;;;14.80;;
15938;SDS011;8068;51.322;9.450;2023-02-15T02:41:38;28.57;;;12.67;;
15938;SDS011;8068;51.322;9.450;2023-02-15T02:44:19;24.43;;;12.33;;
15938;SDS011;8068;51.322;9.450;2023-02-15T02:49:43;32.90;;;13.10;;
15938;SDS011;8068;51.322;9.450;2023-02-15T02:55:30;47.80;;;10.30;;
15938;SDS011;8068;51.322;9.450;2023-02-15T02:58:09;12.90;;;11.10;;
15938;SDS011;8068;51.322;9.450;2023-02-15T03:00:57;21.13;;;12.20;;
15938;SDS011;8068;51.322;9.450;2023-02-15T03:03:36;19.67;;;11.63;;
15938;SDS011;8068;51.322;9.450;2023-02-15T03:06:15;16.23;;;11.60;;
15938;SDS011;8068;51.322;9.450;2023-02-15T03:08:51;25.60;;;12.90;;
15938;SDS011;8068;51.322;9.450;2023-02-15T03:11:32;23.00;;;11.10;;
15938;SDS011;8068;51.322;9.450;2023-02-15T03:14:02;27.10;;;13.90;;
15938;SDS011;8068;51.322;9.450;2023-02-15T03:16:33;38.47;;;12.60;;
15938;SDS011;8068;51.322;9.450;2023-02-15T03:19:06;31.70;;;13.03;;
15938;SDS011;8068;51.322;9.450;2023-02-15T03:21:42;15.17;;;12.00;;
15938;SDS011;8068;51.322;9.450;2023-02-15T03:24:24;23.60;;;11.77;;
15938;SDS011;8068;51.322;9.450;2023-02-15T03:26:53;31.80;;;12.40;;
15938;SDS011;8068;51.322;9.450;2023-02-15T03:29:25;17.63;;;11.17;;
15938;SDS011;8068;51.322;9.450;2023-02-15T03:31:55;38.83;;;12.97;;
15938;SDS011;8068;51.322;9.450;2023-02-15T03:34:24;35.13;;;11.00;;
15938;SDS011;8068;51.322;9.450;2023-02-15T03:37:05;22.63;;;11.50;;
15938;SDS011;8068;51.322;9.450;2023-02-15T03:42:13;38.93;;;12.03;;
15938;SDS011;8068;51.322;9.450;2023-02-15T03:44:57;20.60;;;11.93;;
15938;SDS011;8068;51.322;9.450;2023-02-15T03:47:34;40.47;;;13.03;;
15938;SDS011;8068;51.322;9.450;2023-02-15T03:50:22;20.20;;;12.33;;
15938;SDS011;8068;51.322;9.450;2023-02-15T03:53:17;25.93;;;12.30;;
15938;SDS011;8068;51.322;9.450;2023-02-15T03:55:55;21.23;;;11.17;;
15938;SDS011;8068;51.322;9.450;2023-02-15T03:58:26;31.00;;;12.80;;
15938;SDS011;8068;51.322;9.450;2023-02-15T04:04:32;29.60;;;11.60;;
15938;SDS011;8068;51.322;9.450;2023-02-15T04:06:58;20.70;;;12.67;;
15938;SDS011;8068;51.322;9.450;2023-02-15T04:09:25;16.57;;;10.07;;
15938;SDS011;8068;51.322;9.450;2023-02-15T04:12:15;26.43;;;11.40;;
15938;SDS011;8068;51.322;9.450;2023-02-15T04:14:46;20.10;;;11.77;;
15938;SDS011;8068;51.322;9.450;2023-02-15T04:17:30;41.43;;;11.53;;
15938;SDS011;8068;51.322;9.450;2023-02-15T04:20:01;25.60;;;12.13;;
15938;SDS011;8068;51.322;9.450;2023-02-15T04:22:49;18.33;;;9.93;;
15938;SDS011;8068;51.322;9.450;2023-02-15T04:25:38;13.87;;;11.17;;
15938;SDS011;8068;51.322;9.450;2023-02-15T04:28:09;31.63;;;13.53;;
15938;SDS011;8068;51.322;9.450;2023-02-15T04:30:39;36.03;;;13.23;;
15938;SDS011;8068;51.322;9.450;2023-02-15T04:33:10;20.27;;;11.70;;
15938;SDS011;8068;51.322;9.450;2023-02-15T04:35:42;26.60;;;11.50;;
15938;SDS011;8068;51.322;9.450;2023-02-15T04:38:15;23.17;;;12.07;;
15938;SDS011;8068;51.322;9.450;2023-02-15T04:40:50;24.43;;;11.80;;
15938;SDS011;8068;51.322;9.450;2023-02-15T04:43:22;20.47;;;11.60;;
15938;SDS011;8068;51.322;9.450;2023-02-15T04:45:53;30.47;;;11.23;;
15938;SDS011;8068;51.322;9.450;2023-02-15T04:48:28;25.70;;;11.67;;
15938;SDS011;8068;51.322;9.450;2023-02-15T04:51:04;28.87;;;12.40;;
15938;SDS011;8068;51.322;9.450;2023-02-15T04:53:36;42.13;;;12.47;;
15938;SDS011;8068;51.322;9.450;2023-02-15T04:56:11;37.00;;;11.60;;
15938;SDS011;8068;51.322;9.450;2023-02-15T04:58:42;21.53;;;12.13;;
15938;SDS011;8068;51.322;9.450;2023-02-15T05:01:13;17.50;;;11.73;;
15938;SDS011;8068;51.322;9.450;2023-02-15T05:03:49;21.93;;;10.97;;
15938;SDS011;8068;51.322;9.450;2023-02-15T05:06:19;27.57;;;12.30;;
15938;SDS011;8068;51.322;9.450;2023-02-15T05:08:50;21.97;;;12.83;;
15938;SDS011;8068;51.322;9.450;2023-02-15T05:11:21;24.43;;;14.40;;
15938;SDS011;8068;51.322;9.450;2023-02-15T05:13:52;19.73;;;12.83;;
15938;SDS011;8068;51.322;9.450;2023-02-15T05:16:23;26.70;;;11.57;;
15938;SDS011;8068;51.322;9.450;2023-02-15T05:18:56;20.50;;;12.15;;
15938;SDS011;8068;51.322;9.450;2023-02-15T05:21:28;25.17;;;11.30;;
15938;SDS011;8068;51.322;9.450;2023-02-15T05:23:59;15.30;;;9.60;;
15938;SDS011;8068;51.322;9.450;2023-02-15T05:26:29;14.40;;;10.10;;
15938;SDS011;8068;51.322;9.450;2023-02-15T05:29:14;17.43;;;9.07;;
15938;SDS011;8068;51.322;9.450;2023-02-15T05:31:45;15.57;;;11.23;;
15938;SDS011;8068;51.322;9.450;2023-02-15T05:34:16;27.37;;;11.63;;
15938;SDS011;8068;51.322;9.450;2023-02-15T05:36:47;18.03;;;8.97;;
15938;SDS011;8068;51.322;9.450;2023-02-15T05:39:18;23.53;;;11.47;;
15938;SDS011;8068;51.322;9.450;2023-02-15T05:41:48;17.10;;;10.80;;
15938;SDS011;8068;51.322;9.450;2023-02-15T05:44:18;27.90;;;10.40;;
15938;SDS011;8068;51.322;9.450;2023-02-15T05:46:49;19.10;;;10.60;;
15938;SDS011;8068;51.322;9.450;2023-02-15T05:49:19;24.00;;;10.70;;
15938;SDS011;8068;51.322;9.450;2023-02-15T05:51:50;16.07;;;11.00;;
15938;SDS011;8068;51.322;9.450;2023-02-15T05:54:21;18.17;;;9.10;;
15938;SDS011;8068;51.322;9.450;2023-02-15T05:56:52;18.07;;;10.20;;
15938;SDS011;8068;51.322;9.450;2023-02-15T05:59:23;13.27;;;9.60;;
15938;SDS011;8068;51.322;9.450;2023-02-15T06:01:54;12.80;;;10.03;;
15938;SDS011;8068;51.322;9.450;2023-02-15T06:04:26;19.63;;;10.50;;
15938;SDS011;8068;51.322;9.450;2023-02-15T06:06:55;16.60;;;11.00;;
15938;SDS011;8068;51.322;9.450;2023-02-15T06:09:26;10.70;;;8.20;;
15938;SDS011;8068;51.322;9.450;2023-02-15T06:11:56;15.73;;;9.70;;
15938;SDS011;8068;51.322;9.450;2023-02-15T06:14:26;12.80;;;9.43;;
15938;SDS011;8068;51.322;9.450;2023-02-15T06:16:57;17.77;;;8.90;;
15938;SDS011;8068;51.322;9.450;2023-02-15T06:19:27;15.77;;;10.40;;
15938;SDS011;8068;51.322;9.450;2023-02-15T06:22:00;18.77;;;10.63;;
15938;SDS011;8068;51.322;9.450;2023-02-15T06:24:30;13.77;;;8.33;;
15938;SDS011;8068;51.322;9.450;2023-02-15T06:27:00;15.50;;;10.40;;
15938;SDS011;8068;51.322;9.450;2023-02-15T06:29:31;19.13;;;10.30;;
15938;SDS011;8068;51.322;9.450;2023-02-15T06:32:02;17.87;;;10.47;;
15938;SDS011;8068;51.322;9.450;2023-02-15T06:34:32;16.00;;;10.33;;
15938;SDS011;8068;51.322;9.450;2023-02-15T06:37:03;20.83;;;11.53;;
15938;SDS011;8068;51.322;9.450;2023-02-15T06:39:37;16.47;;;10.80;;
15938;SDS011;8068;51.322;9.450;2023-02-15T06:42:07;16.00;;;9.63;;
15938;SDS011;8068;51.322;9.450;2023-02-15T06:44:38;17.03;;;11.13;;
15938;SDS011;8068;51.322;9.450;2023-02-15T06:47:08;21.97;;;11.27;;
15938;SDS011;8068;51.322;9.450;2023-02-15T06:49:38;14.53;;;10.03;;
15938;SDS011;8068;51.322;9.450;2023-02-15T06:52:09;21.10;;;9.70;;
15938;SDS011;8068;51.322;9.450;2023-02-15T06:54:39;17.07;;;10.70;;
15938;SDS011;8068;51.322;9.450;2023-02-15T06:57:13;18.97;;;11.93;;
15938;SDS011;8068;51.322;9.450;2023-02-15T06:59:44;20.83;;;10.37;;
15938;SDS011;8068;51.322;9.450;2023-02-15T07:02:15;17.73;;;10.17;;
15938;SDS011;8068;51.322;9.450;2023-02-15T07:04:45;17.23;;;11.30;;
15938;SDS011;8068;51.322;9.450;2023-02-15T07:07:15;16.00;;;8.77;;
15938;SDS011;8068;51.322;9.450;2023-02-15T07:09:46;16.47;;;11.53;;
15938;SDS011;8068;51.322;9.450;2023-02-15T07:12:16;16.90;;;10.63;;
15938;SDS011;8068;51.322;9.450;2023-02-15T07:15:06;16.97;;;10.73;;
15938;SDS011;8068;51.322;9.450;2023-02-15T07:17:33;37.07;;;10.80;;
15938;SDS011;8068;51.322;9.450;2023-02-15T07:20:03;24.10;;;11.10;;
15938;SDS011;8068;51.322;9.450;2023-02-15T07:22:38;18.47;;;9.27;;
15938;SDS011;8068;51.322;9.450;2023-02-15T07:25:05;27.93;;;12.00;;
15938;SDS011;8068;51.322;9.450;2023-02-15T07:27:33;21.27;;;8.60;;
15938;SDS011;8068;51.322;9.450;2023-02-15T07:29:59;18.73;;;10.23;;
15938;SDS011;8068;51.322;9.450;2023-02-15T07:32:34;17.13;;;11.10;;
15938;SDS011;8068;51.322;9.450;2023-02-15T07:35:03;14.40;;;9.80;;
15938;SDS011;8068;51.322;9.450;2023-02-15T07:37:32;16.50;;;10.50;;
15938;SDS011;8068;51.322;9.450;2023-02-15T07:40:03;14.97;;;10.03;;
15938;SDS011;8068;51.322;9.450;2023-02-15T07:42:33;15.10;;;9.10;;
15938;SDS011;8068;51.322;9.450;2023-02-15T07:45:04;15.00;;;10.60;;
15938;SDS011;8068;51.322;9.450;2023-02-15T07:47:34;19.90;;;9.47;;
15938;SDS011;8068;51.322;9.450;2023-02-15T07:50:07;17.27;;;9.27;;
15938;SDS011;8068;51.322;9.450;2023-02-15T07:52:37;13.37;;;8.10;;
15938;SDS011;8068;51.322;9.450;2023-02-15T07:55:07;17.97;;;9.17;;
15938;SDS011;8068;51.322;9.450;2023-02-15T07:57:41;13.17;;;9.27;;
15938;SDS011;8068;51.322;9.450;2023-02-15T08:00:08;13.90;;;9.60;;
15938;SDS011;8068;51.322;9.450;2023-02-15T08:02:39;13.37;;;9.20;;
15938;SDS011;8068;51.322;9.450;2023-02-15T08:05:09;14.73;;;8.60;;
15938;SDS011;8068;51.322;9.450;2023-02-15T08:07:44;15.33;;;10.30;;
15938;SDS011;8068;51.322;9.450;2023-02-15T08:10:14;31.13;;;8.27;;
15938;SDS011;8068;51.322;9.450;2023-02-15T08:13:00;23.10;;;11.83;;
15938;SDS011;8068;51.322;9.450;2023-02-15T08:15:31;13.77;;;9.20;;
15938;SDS011;8068;51.322;9.450;2023-02-15T08:17:57;17.17;;;9.03;;
15938;SDS011;8068;51.322;9.450;2023-02-15T08:20:23;14.53;;;9.90;;
15938;SDS011;8068;51.322;9.450;2023-02-15T08:22:49;13.13;;;9.73;;
15938;SDS011;8068;51.322;9.450;2023-02-15T08:25:24;12.20;;;8.80;;
15938;SDS011;8068;51.322;9.450;2023-02-15T08:27:54;15.30;;;10.03;;
15938;SDS011;8068;51.322;9.450;2023-02-15T08:30:25;13.10;;;8.90;;
15938;SDS011;8068;51.322;9.450;2023-02-15T08:32:55;13.43;;;10.03;;
15938;SDS011;8068;51.322;9.450;2023-02-15T08:35:25;16.03;;;10.90;;
15938;SDS011;8068;51.322;9.450;2023-02-15T08:37:55;15.97;;;10.80;;
15938;SDS011;8068;51.322;9.450;2023-02-15T08:40:26;15.00;;;10.47;;
15938;SDS011;8068;51.322;9.450;2023-02-15T08:43:02;14.97;;;9.87;;
15938;SDS011;8068;51.322;9.450;2023-02-15T08:45:33;16.00;;;10.80;;
15938;SDS011;8068;51.322;9.450;2023-02-15T08:48:03;32.40;;;9.43;;
15938;SDS011;8068;51.322;9.450;2023-02-15T08:50:33;15.07;;;9.47;;
15938;SDS011;8068;51.322;9.450;2023-02-15T08:53:04;17.33;;;8.93;;
15938;SDS011;8068;51.322;9.450;2023-02-15T08:55:35;16.30;;;9.53;;
15938;SDS011;8068;51.322;9.450;2023-02-15T08:58:05;14.93;;;9.27;;
15938;SDS011;8068;51.322;9.450;2023-02-15T09:00:39;14.10;;;9.63;;
15938;SDS011;8068;51.322;9.450;2023-02-15T09:03:09;27.83;;;10.93;;
15938;SDS011;8068;51.322;9.450;2023-02-15T09:05:40;15.47;;;11.37;;
15938;SDS011;8068;51.322;9.450;2023-02-15T09:08:10;19.57;;;11.20;;
15938;SDS011;8068;51.322;9.450;2023-02-15T09:10:41;18.20;;;12.03;;
15938;SDS011;8068;51.322;9.450;2023-02-15T09:13:11;14.10;;;8.53;;
15938;SDS011;8068;51.322;9.450;2023-02-15T09:15:41;19.00;;;10.67;;
15938;SDS011;8068;51.322;9.450;2023-02-15T09:18:15;19.70;;;10.47;;
15938;SDS011;8068;51.322;9.450;2023-02-15T09:20:44;17.63;;;11.30;;
15938;SDS011;8068;51.322;9.450;2023-02-15T09:23:15;19.70;;;10.80;;
15938;SDS011;8068;51.322;9.450;2023-02-15T09:26:04;18.00;;;10.20;;
15938;SDS011;8068;51.322;9.450;2023-02-15T09:28:34;19.43;;;11.00;;
15938;SDS011;8068;51.322;9.450;2023-02-15T09:31:37;15.93;;;9.93;;
15938;SDS011;8068;51.322;9.450;2023-02-15T09:33:59;17.20;;;11.13;;
15938;SDS011;8068;51.322;9.450;2023-02-15T09:36:31;19.10;;;11.30;;
15938;SDS011;8068;51.322;9.450;2023-02-15T09:39:00;22.07;;;11.97;;
15938;SDS011;8068;51.322;9.450;2023-02-15T09:58:48;17.73;;;10.80;;
15938;SDS011;8068;51.322;9.450;2023-02-15T10:12:10;17.63;;;11.27;;
15938;SDS011;8068;51.322;9.450;2023-02-15T10:23:36;22.93;;;12.13;;
15938;SDS011;8068;51.322;9.450;2023-02-15T10:26:18;20.13;;;12.00;;
15938;SDS011;8068;51.322;9.450;2023-02-15T10:40:47;18.77;;;9.97;;
15938;SDS011;8068;51.322;9.450;2023-02-15T10:43:40;18.00;;;11.80;;
15938;SDS011;8068;51.322;9.450;2023-02-15T11:07:50;23.90;;;13.70;;
15938;SDS011;8068;51.322;9.450;2023-02-15T11:10:44;20.20;;;12.30;;
15938;SDS011;8068;51.322;9.450;2023-02-15T11:13:29;21.23;;;13.23;;
15938;SDS011;8068;51.322;9.450;2023-02-15T11:16:12;20.80;;;10.93;;
15938;SDS011;8068;51.322;9.450;2023-02-15T11:18:54;20.50;;;11.83;;
15938;SDS011;8068;51.322;9.450;2023-02-15T11:21:27;15.90;;;10.00;;
15938;SDS011;8068;51.322;9.450;2023-02-15T11:24:12;22.17;;;11.87;;
15938;SDS011;8068;51.322;9.450;2023-02-15T11:26:54;17.87;;;11.60;;
15938;SDS011;8068;51.322;9.450;2023-02-15T11:29:33;20.20;;;10.50;;
15938;SDS011;8068;51.322;9.450;2023-02-15T11:32:26;21.70;;;12.83;;
15938;SDS011;8068;51.322;9.450;2023-02-15T11:37:46;24.60;;;13.37;;
15938;SDS011;8068;51.322;9.450;2023-02-15T11:40:36;19.57;;;12.17;;
15938;SDS011;8068;51.322;9.450;2023-02-15T11:43:15;18.57;;;11.40;;
15938;SDS011;8068;51.322;9.450;2023-02-15T11:45:48;17.50;;;10.53;;
15938;SDS011;8068;51.322;9.450;2023-02-15T11:48:19;17.37;;;11.83;;
15938;SDS011;8068;51.322;9.450;2023-02-15T11:50:49;18.40;;;12.20;;
15938;SDS011;8068;51.322;9.450;2023-02-15T11:53:20;14.83;;;10.90;;
15938;SDS011;8068;51.322;9.450;2023-02-15T11:55:51;15.83;;;10.77;;
15938;SDS011;8068;51.322;9.450;2023-02-15T12:04:09;15.33;;;11.23;;
15938;SDS011;8068;51.322;9.450;2023-02-15T12:06:59;20.00;;;12.23;;
15938;SDS011;8068;51.322;9.450;2023-02-15T12:09:36;11.60;;;8.70;;
15938;SDS011;8068;51.322;9.450;2023-02-15T12:12:21;22.07;;;12.50;;
15938;SDS011;8068;51.322;9.450;2023-02-15T12:14:57;17.57;;;11.50;;
15938;SDS011;8068;51.322;9.450;2023-02-15T12:17:30;17.37;;;12.27;;
15938;SDS011;8068;51.322;9.450;2023-02-15T12:20:04;18.50;;;11.77;;
15938;SDS011;8068;51.322;9.450;2023-02-15T12:22:36;19.87;;;12.30;;
15938;SDS011;8068;51.322;9.450;2023-02-15T12:25:20;17.80;;;12.40;;
15938;SDS011;8068;51.322;9.450;2023-02-15T12:27:53;18.10;;;11.80;;
15938;SDS011;8068;51.322;9.450;2023-02-15T12:30:31;19.83;;;13.03;;
15938;SDS011;8068;51.322;9.450;2023-02-15T12:35:45;16.97;;;11.57;;
15938;SDS011;8068;51.322;9.450;2023-02-15T12:38:23;17.27;;;11.37;;
15938;SDS011;8068;51.322;9.450;2023-02-15T12:40:58;16.37;;;11.23;;
15938;SDS011;8068;51.322;9.450;2023-02-15T12:43:27;14.43;;;8.63;;
15938;SDS011;8068;51.322;9.450;2023-02-15T12:48:45;16.20;;;10.20;;
15938;SDS011;8068;51.322;9.450;2023-02-15T12:51:14;21.57;;;11.77;;
15938;SDS011;8068;51.322;9.450;2023-02-15T12:53:41;19.40;;;11.70;;
15938;SDS011;8068;51.322;9.450;2023-02-15T12:56:14;19.30;;;12.53;;
15938;SDS011;8068;51.322;9.450;2023-02-15T12:58:52;22.07;;;13.73;;
15938;SDS011;8068;51.322;9.450;2023-02-15T13:01:31;24.27;;;14.40;;
15938;SDS011;8068;51.322;9.450;2023-02-15T13:04:08;21.10;;;10.00;;
15938;SDS011;8068;51.322;9.450;2023-02-15T13:06:55;25.47;;;13.67;;
15938;SDS011;8068;51.322;9.450;2023-02-15T13:12:14;16.73;;;11.13;;
15938;SDS011;8068;51.322;9.450;2023-02-15T13:14:54;21.50;;;12.70;;
15938;SDS011;8068;51.322;9.450;2023-02-15T13:17:26;24.03;;;14.10;;
15938;SDS011;8068;51.322;9.450;2023-02-15T13:20:18;21.10;;;13.97;;
15938;SDS011;8068;51.322;9.450;2023-02-15T13:23:03;18.20;;;10.97;;
15938;SDS011;8068;51.322;9.450;2023-02-15T13:25:39;23.27;;;13.00;;
15938;SDS011;8068;51.322;9.450;2023-02-15T13:28:21;26.37;;;13.63;;
15938;SDS011;8068;51.322;9.450;2023-02-15T13:30:55;24.43;;;13.10;;
15938;SDS011;8068;51.322;9.450;2023-02-15T13:33:26;18.13;;;9.87;;
15938;SDS011;8068;51.322;9.450;2023-02-15T13:38:50;20.00;;;12.53;;
15938;SDS011;8068;51.322;9.450;2023-02-15T13:41:32;21.07;;;13.60;;
15938;SDS011;8068;51.322;9.450;2023-02-15T13:52:46;24.70;;;13.77;;
15938;SDS011;8068;51.322;9.450;2023-02-15T13:55:31;21.13;;;13.20;;
15938;SDS011;8068;51.322;9.450;2023-02-15T13:58:12;19.00;;;11.20;;
15938;SDS011;8068;51.322;9.450;2023-02-15T14:07:08;22.70;;;13.40;;
15938;SDS011;8068;51.322;9.450;2023-02-15T14:16:33;23.07;;;13.33;;
15938;SDS011;8068;51.322;9.450;2023-02-15T14:21:35;21.00;;;12.33;;
15938;SDS011;8068;51.322;9.450;2023-02-15T14:29:42;24.80;;;15.20;;
15938;SDS011;8068;51.322;9.450;2023-02-15T14:32:12;20.80;;;11.57;;
15938;SDS011;8068;51.322;9.450;2023-02-15T14:37:19;24.00;;;13.03;;
15938;SDS011;8068;51.322;9.450;2023-02-15T14:43:23;26.90;;;14.10;;
15938;SDS011;8068;51.322;9.450;2023-02-15T14:48:56;28.20;;;14.90;;
15938;SDS011;8068;51.322;9.450;2023-02-15T15:02:20;27.77;;;16.07;;
15938;SDS011;8068;51.322;9.450;2023-02-15T15:07:27;25.30;;;14.23;;
15938;SDS011;8068;51.322;9.450;2023-02-15T15:10:32;26.87;;;14.70;;
15938;SDS011;8068;51.322;9.450;2023-02-15T15:12:56;23.77;;;14.20;;
15938;SDS011;8068;51.322;9.450;2023-02-15T15:21:04;26.77;;;15.10;;
15938;SDS011;8068;51.322;9.450;2023-02-15T15:23:42;26.67;;;14.87;;
15938;SDS011;8068;51.322;9.450;2023-02-15T15:26:29;24.00;;;15.03;;
15938;SDS011;8068;51.322;9.450;2023-02-15T15:28:59;30.50;;;16.40;;
15938;SDS011;8068;51.322;9.450;2023-02-15T15:43:19;23.93;;;15.20;;
15938;SDS011;8068;51.322;9.450;2023-02-15T15:46:02;27.93;;;16.17;;
15938;SDS011;8068;51.322;9.450;2023-02-15T15:48:35;32.20;;;17.67;;
15938;SDS011;8068;51.322;9.450;2023-02-15T15:53:58;26.87;;;16.87;;
15938;SDS011;8068;51.322;9.450;2023-02-15T15:56:27;26.50;;;16.70;;
15938;SDS011;8068;51.322;9.450;2023-02-15T15:59:01;24.60;;;13.80;;
15938;SDS011;8068;51.322;9.450;2023-02-15T16:01:29;31.93;;;17.67;;
15938;SDS011;8068;51.322;9.450;2023-02-15T16:03:57;33.00;;;16.67;;
15938;SDS011;8068;51.322;9.450;2023-02-15T16:08:55;26.33;;;14.73;;
15938;SDS011;8068;51.322;9.450;2023-02-15T16:11:25;28.33;;;16.17;;
15938;SDS011;8068;51.322;9.450;2023-02-15T16:13:53;30.20;;;16.73;;
15938;SDS011;8068;51.322;9.450;2023-02-15T16:16:20;26.97;;;15.33;;
15938;SDS011;8068;51.322;9.450;2023-02-15T16:18:48;30.60;;;16.40;;
15938;SDS011;8068;51.322;9.450;2023-02-15T16:21:19;26.63;;;14.77;;
15938;SDS011;8068;51.322;9.450;2023-02-15T16:23:55;38.20;;;18.50;;
15938;SDS011;8068;51.322;9.450;2023-02-15T16:26:48;25.93;;;12.37;;
15938;SDS011;8068;51.322;9.450;2023-02-15T16:29:26;32.60;;;16.10;;
15938;SDS011;8068;51.322;9.450;2023-02-15T16:32:14;30.03;;;16.47;;
15938;SDS011;8068;51.322;9.450;2023-02-15T16:34:53;33.60;;;17.30;;
15938;SDS011;8068;51.322;9.450;2023-02-15T16:37:24;30.67;;;14.77;;
15938;SDS011;8068;51.322;9.450;2023-02-15T16:39:53;33.40;;;18.10;;
15938;SDS011;8068;51.322;9.450;2023-02-15T16:42:21;29.90;;;15.40;;
15938;SDS011;8068;51.322;9.450;2023-02-15T16:45:06;32.30;;;17.30;;
15938;SDS011;8068;51.322;9.450;2023-02-15T16:47:37;33.45;;;21.23;;
15938;SDS011;8068;51.322;9.450;2023-02-15T16:50:07;33.93;;;18.77;;
15938;SDS011;8068;51.322;9.450;2023-02-15T16:52:43;34.57;;;18.23;;
15938;SDS011;8068;51.322;9.450;2023-02-15T16:55:18;35.23;;;17.80;;
15938;SDS011;8068;51.322;9.450;2023-02-15T16:57:48;35.33;;;19.17;;
15938;SDS011;8068;51.322;9.450;2023-02-15T17:00:19;34.20;;;19.07;;
15938;SDS011;8068;51.322;9.450;2023-02-15T17:03:22;34.53;;;18.43;;
15938;SDS011;8068;51.322;9.450;2023-02-15T17:08:10;30.03;;;17.67;;
15938;SDS011;8068;51.322;9.450;2023-02-15T17:10:40;34.13;;;18.17;;
15938;SDS011;8068;51.322;9.450;2023-02-15T17:13:14;33.30;;;18.80;;
15938;SDS011;8068;51.322;9.450;2023-02-15T17:15:42;29.40;;;16.17;;
15938;SDS011;8068;51.322;9.450;2023-02-15T17:18:23;21.77;;;13.27;;
15938;SDS011;8068;51.322;9.450;2023-02-15T17:20:50;32.50;;;16.90;;
15938;SDS011;8068;51.322;9.450;2023-02-15T17:25:48;32.77;;;17.03;;
15938;SDS011;8068;51.322;9.450;2023-02-15T17:28:19;37.97;;;18.70;;
15938;SDS011;8068;51.322;9.450;2023-02-15T17:30:46;34.63;;;17.83;;
15938;SDS011;8068;51.322;9.450;2023-02-15T17:33:23;35.43;;;19.30;;
15938;SDS011;8068;51.322;9.450;2023-02-15T17:36:08;32.83;;;19.00;;
15938;SDS011;8068;51.322;9.450;2023-02-15T17:38:59;38.30;;;19.27;;
15938;SDS011;8068;51.322;9.450;2023-02-15T17:41:31;33.67;;;17.27;;
15938;SDS011;8068;51.322;9.450;2023-02-15T17:44:03;38.97;;;19.87;;
15938;SDS011;8068;51.322;9.450;2023-02-15T17:46:32;41.73;;;19.90;;
15938;SDS011;8068;51.322;9.450;2023-02-15T17:49:00;42.67;;;20.93;;
15938;SDS011;8068;51.322;9.450;2023-02-15T17:51:27;41.20;;;21.23;;
15938;SDS011;8068;51.322;9.450;2023-02-15T17:53:53;45.17;;;22.00;;
15938;SDS011;8068;51.322;9.450;2023-02-15T17:56:38;45.07;;;21.00;;
15938;SDS011;8068;51.322;9.450;2023-02-15T17:59:04;44.67;;;22.80;;
15938;SDS011;8068;51.322;9.450;2023-02-15T18:01:36;41.70;;;21.53;;
15938;SDS011;8068;51.322;9.450;2023-02-15T18:04:22;39.93;;;21.17;;
15938;SDS011;8068;51.322;9.450;2023-02-15T18:07:08;38.90;;;19.00;;
15938;SDS011;8068;51.322;9.450;2023-02-15T18:09:55;36.90;;;19.20;;
15938;SDS011;8068;51.322;9.450;2023-02-15T18:12:40;45.60;;;20.90;;
15938;SDS011;8068;51.322;9.450;2023-02-15T18:15:07;41.77;;;21.93;;
15938;SDS011;8068;51.322;9.450;2023-02-15T18:17:43;44.33;;;22.27;;
15938;SDS011;8068;51.322;9.450;2023-02-15T18:22:43;42.50;;;20.93;;
15938;SDS011;8068;51.322;9.450;2023-02-15T18:25:12;37.40;;;20.70;;
15938;SDS011;8068;51.322;9.450;2023-02-15T18:27:39;41.80;;;21.63;;
15938;SDS011;8068;51.322;9.450;2023-02-15T18:30:05;42.20;;;22.17;;
15938;SDS011;8068;51.322;9.450;2023-02-15T18:32:34;40.47;;;20.87;;